Time;durP1;ratioP1;P1;durP2;ratioP2;P2;SDS_P1;SDS_P2;PMS_P1;PMS_P2;Temp;Humidity;BMP_temperature;BMP_pressure;BME280_temperature;BME280_humidity;BME280_pressure;Samples;Min_cycle;Max_cycle;Signal;HPM_P1;HPM_P2
2024/01/27 00:00:09;;;;;;;10.77;2.22;;;5.20;99.90;;;;;;2095086;28;20036;-74
2024/01/27 00:01:12;;;;;;;10.43;2.38;;;5.20;99.90;;;;;;2096428;28;20040;-72
2024/01/27 00:02:12;;;;;;;10.98;2.10;;;5.20;99.90;;;;;;2098825;28;20194;-72
2024/01/27 00:03:13;;;;;;;10.65;2.50;;;5.20;99.90;;;;;;2100850;28;20041;-73
2024/01/27 00:04:13;;;;;;;10.27;2.22;;;5.10;99.90;;;;;;2100610;28;20575;-74
2024/01/27 00:05:14;;;;;;;11.68;2.38;;;5.10;99.90;;;;;;2098175;28;20487;-73
2024/01/27 00:06:14;;;;;;;14.23;2.42;;;5.10;99.90;;;;;;2100929;28;20625;-72
2024/01/27 00:07:15;;;;;;;9.18;2.42;;;5.10;99.90;;;;;;2096187;28;20021;-72
2024/01/27 00:08:16;;;;;;;9.38;2.42;;;5.10;99.90;;;;;;2097651;28;20028;-73
2024/01/27 00:09:16;;;;;;;8.98;2.10;;;5.10;99.90;;;;;;2100958;28;20035;-71
2024/01/27 00:10:17;;;;;;;8.00;2.10;;;5.10;99.90;;;;;;2095849;28;20029;-73
2024/01/27 00:11:17;;;;;;;10.68;2.22;;;5.10;99.90;;;;;;2096407;28;20036;-72
2024/01/27 00:12:18;;;;;;;9.00;2.08;;;5.10;99.90;;;;;;2100835;28;20438;-72
2024/01/27 00:13:18;;;;;;;10.27;2.20;;;5.00;99.90;;;;;;2092072;28;20387;-71
2024/01/27 00:14:19;;;;;;;8.98;2.10;;;5.00;99.90;;;;;;2083835;28;20029;-71
2024/01/27 00:15:19;;;;;;;13.73;2.60;;;5.00;99.90;;;;;;2092466;28;20051;-72
2024/01/27 00:16:20;;;;;;;10.80;2.08;;;5.00;99.90;;;;;;2097717;28;20039;-72
2024/01/27 00:17:24;;;;;;;13.18;2.55;;;5.00;99.90;;;;;;2096239;28;20032;-72
2024/01/27 00:18:24;;;;;;;10.68;2.47;;;5.00;99.90;;;;;;2100973;28;20540;-72
2024/01/27 00:19:25;;;;;;;10.07;2.20;;;5.00;99.90;;;;;;2098919;28;20152;-72
2024/01/27 00:20:26;;;;;;;10.07;2.45;;;5.00;99.90;;;;;;2094751;28;20518;-72
2024/01/27 00:21:26;;;;;;;9.43;2.17;;;5.00;99.90;;;;;;2100773;28;20028;-72
2024/01/27 00:22:27;;;;;;;11.98;2.50;;;5.00;99.90;;;;;;2104982;28;20590;-72
2024/01/27 00:23:27;;;;;;;13.18;2.38;;;5.00;99.90;;;;;;2102007;28;20424;-71
2024/01/27 00:24:28;;;;;;;11.50;2.30;;;5.00;99.90;;;;;;2097904;28;20097;-72
2024/01/27 00:25:28;;;;;;;10.60;2.30;;;5.00;99.90;;;;;;2095418;28;20024;-71
2024/01/27 00:26:29;;;;;;;9.68;2.47;;;5.00;99.90;;;;;;2100934;28;20058;-72
2024/01/27 00:27:29;;;;;;;10.82;2.35;;;5.00;99.90;;;;;;2092854;28;20474;-73
2024/01/27 00:28:30;;;;;;;7.45;2.03;;;5.00;99.90;;;;;;2093010;28;20359;-72
2024/01/27 00:29:31;;;;;;;11.40;2.20;;;5.00;99.90;;;;;;2092635;28;20035;-72
2024/01/27 00:30:31;;;;;;;9.13;2.33;;;5.00;99.90;;;;;;2099680;28;20105;-70
2024/01/27 00:31:32;;;;;;;9.73;2.25;;;5.00;99.90;;;;;;2091990;28;20102;-73
2024/01/27 00:32:33;;;;;;;8.43;2.03;;;5.00;99.90;;;;;;2093921;28;20070;-71
2024/01/27 00:33:35;;;;;;;11.82;2.20;;;5.00;99.90;;;;;;2100573;28;20066;-72
2024/01/27 00:34:36;;;;;;;8.25;2.40;;;5.00;99.90;;;;;;2099541;28;20122;-72
2024/01/27 00:35:37;;;;;;;14.02;2.30;;;5.00;99.90;;;;;;2092097;28;20044;-70
2024/01/27 00:36:37;;;;;;;10.25;2.40;;;5.00;99.90;;;;;;2092901;28;20599;-72
2024/01/27 00:37:38;;;;;;;8.10;2.00;;;5.00;99.90;;;;;;2104579;28;20120;-72
2024/01/27 00:38:39;;;;;;;11.10;1.90;;;4.90;99.90;;;;;;2094552;28;20040;-74
2024/01/27 00:39:40;;;;;;;10.68;2.75;;;4.90;99.90;;;;;;2100581;28;20035;-71
2024/01/27 00:40:41;;;;;;;10.02;2.20;;;4.90;99.90;;;;;;2103567;28;20081;-72
2024/01/27 00:41:42;;;;;;;9.43;2.55;;;4.90;99.90;;;;;;2100885;28;20713;-72
2024/01/27 00:42:43;;;;;;;8.90;2.30;;;4.90;99.90;;;;;;2092405;28;20028;-72
2024/01/27 00:43:43;;;;;;;10.93;2.65;;;4.90;99.90;;;;;;2092729;28;20056;-71
2024/01/27 00:44:44;;;;;;;9.02;2.40;;;4.90;99.90;;;;;;2095575;28;20156;-72
2024/01/27 00:45:44;;;;;;;8.18;2.42;;;4.90;99.90;;;;;;2096651;28;20078;-72
2024/01/27 00:46:45;;;;;;;12.93;2.58;;;4.90;99.90;;;;;;2092991;28;20032;-72
2024/01/27 00:47:45;;;;;;;11.40;2.60;;;4.90;99.90;;;;;;2099439;28;20058;-71
2024/01/27 00:48:46;;;;;;;9.60;2.63;;;4.90;99.90;;;;;;2083397;28;20687;-71
2024/01/27 00:49:47;;;;;;;10.23;2.35;;;4.90;99.90;;;;;;2091933;28;20107;-72
2024/01/27 00:50:47;;;;;;;7.30;2.03;;;4.90;99.90;;;;;;2096881;28;20019;-72
2024/01/27 00:51:48;;;;;;;9.20;2.47;;;4.90;99.90;;;;;;2100957;28;20490;-72
2024/01/27 00:52:49;;;;;;;10.38;2.08;;;4.90;99.90;;;;;;2085368;28;20120;-71
2024/01/27 00:53:49;;;;;;;9.63;2.30;;;4.90;99.90;;;;;;2090010;28;20147;-72
2024/01/27 00:54:50;;;;;;;13.00;2.60;;;4.90;99.90;;;;;;2100744;28;20015;-71
2024/01/27 00:55:50;;;;;;;10.77;2.13;;;4.90;99.90;;;;;;2099011;28;20509;-74
2024/01/27 00:56:52;;;;;;;12.77;2.28;;;4.90;99.90;;;;;;2098429;28;20033;-72
2024/01/27 00:57:53;;;;;;;12.18;2.22;;;4.90;99.90;;;;;;2100429;28;20036;-71
2024/01/27 00:58:54;;;;;;;11.57;2.70;;;4.80;99.90;;;;;;2094796;28;20024;-72
2024/01/27 00:59:54;;;;;;;8.85;2.47;;;4.80;99.90;;;;;;2100152;28;20016;-72
2024/01/27 01:00:56;;;;;;;10.90;2.28;;;4.80;99.90;;;;;;2103126;28;20025;-72
2024/01/27 01:01:56;;;;;;;11.52;2.20;;;4.80;99.90;;;;;;2092557;28;20094;-72
2024/01/27 01:02:57;;;;;;;13.43;2.03;;;4.80;99.90;;;;;;2092791;28;20059;-72
2024/01/27 01:03:57;;;;;;;8.93;2.00;;;4.80;99.90;;;;;;2092068;28;20132;-72
2024/01/27 01:04:58;;;;;;;9.45;2.05;;;4.80;99.90;;;;;;2097689;28;20587;-72
2024/01/27 01:05:58;;;;;;;10.32;2.60;;;4.80;99.90;;;;;;2098007;28;20077;-71
2024/01/27 01:06:59;;;;;;;8.60;2.30;;;4.80;99.90;;;;;;2097651;28;20016;-71
2024/01/27 01:07:59;;;;;;;9.57;2.22;;;4.80;99.90;;;;;;2100710;28;20035;-72
2024/01/27 01:09:00;;;;;;;11.30;2.28;;;4.80;99.90;;;;;;2092483;28;20033;-72
2024/01/27 01:10:01;;;;;;;12.52;2.70;;;4.80;99.90;;;;;;2092643;28;20033;-72
2024/01/27 01:11:01;;;;;;;10.55;2.40;;;4.80;99.90;;;;;;2100754;28;20027;-72
2024/01/27 01:12:02;;;;;;;9.18;2.22;;;4.90;99.90;;;;;;2096736;28;20051;-72
2024/01/27 01:13:03;;;;;;;10.27;2.67;;;4.90;99.90;;;;;;2096579;28;20047;-71
2024/01/27 01:14:03;;;;;;;14.60;2.20;;;4.90;99.90;;;;;;2100725;28;20028;-71
2024/01/27 01:15:04;;;;;;;8.90;2.13;;;4.90;99.90;;;;;;2101123;28;20040;-72
2024/01/27 01:16:07;;;;;;;9.05;2.30;;;4.90;99.90;;;;;;2095929;28;20115;-72
2024/01/27 01:17:08;;;;;;;8.55;2.38;;;4.80;99.90;;;;;;2100737;28;20024;-71
2024/01/27 01:18:08;;;;;;;10.13;2.45;;;4.80;99.90;;;;;;2101705;28;20038;-72
2024/01/27 01:19:09;;;;;;;7.88;2.00;;;4.80;99.90;;;;;;2100664;28;20031;-71
2024/01/27 01:20:10;;;;;;;10.18;2.10;;;4.80;99.90;;;;;;2092491;28;20060;-72
2024/01/27 01:21:10;;;;;;;10.38;2.20;;;4.70;99.90;;;;;;2092346;28;20032;-72
2024/01/27 01:22:11;;;;;;;11.15;2.20;;;4.70;99.90;;;;;;2100706;28;20031;-72
2024/01/27 01:23:11;;;;;;;8.30;2.30;;;4.70;99.90;;;;;;2097897;28;20584;-71
2024/01/27 01:24:12;;;;;;;9.43;2.00;;;4.70;99.90;;;;;;2095485;28;20116;-72
2024/01/27 01:25:12;;;;;;;10.10;2.20;;;4.70;99.90;;;;;;2093894;28;20349;-75
2024/01/27 01:26:13;;;;;;;8.35;1.95;;;4.70;99.90;;;;;;2092931;28;20016;-74
2024/01/27 01:27:13;;;;;;;9.60;2.20;;;4.70;99.90;;;;;;2099892;28;20052;-71
2024/01/27 01:28:14;;;;;;;8.95;2.30;;;4.70;99.90;;;;;;2098529;28;20028;-72
2024/01/27 01:29:14;;;;;;;10.43;2.50;;;4.70;99.90;;;;;;2094338;28;20099;-72
2024/01/27 01:30:16;;;;;;;11.25;2.55;;;4.70;99.90;;;;;;2093079;28;20020;-72
2024/01/27 01:31:17;;;;;;;9.98;2.30;;;4.70;99.90;;;;;;2088086;28;20044;-72
2024/01/27 01:32:17;;;;;;;7.35;2.38;;;4.70;99.90;;;;;;2100458;28;20070;-72
2024/01/27 01:33:18;;;;;;;12.35;2.67;;;4.70;99.90;;;;;;2096262;28;20399;-72
2024/01/27 01:34:18;;;;;;;10.27;2.40;;;4.70;99.90;;;;;;2096759;28;20035;-71
2024/01/27 01:35:19;;;;;;;8.43;2.28;;;4.70;99.90;;;;;;2098585;28;20034;-72
2024/01/27 01:36:19;;;;;;;10.98;2.05;;;4.70;99.90;;;;;;2092799;28;20029;-74
2024/01/27 01:37:20;;;;;;;9.77;2.45;;;4.70;99.90;;;;;;2093125;28;20024;-72
2024/01/27 01:38:20;;;;;;;9.95;2.22;;;4.70;99.90;;;;;;2092349;28;20090;-71
2024/01/27 01:39:21;;;;;;;10.80;2.50;;;4.70;99.90;;;;;;2096494;28;20032;-71
2024/01/27 01:40:21;;;;;;;11.35;2.42;;;4.60;99.90;;;;;;2097027;28;20016;-83
2024/01/27 01:41:22;;;;;;;11.25;2.42;;;4.60;99.90;;;;;;2099998;28;20104;-87
2024/01/27 01:42:24;;;;;;;10.20;2.30;;;4.70;99.90;;;;;;2100246;28;20043;-83
2024/01/27 01:43:25;;;;;;;11.73;2.90;;;4.60;99.90;;;;;;2095457;28;20027;-84
2024/01/27 01:44:29;;;;;;;8.27;2.40;;;4.60;99.90;;;;;;2102490;28;20024;-83
2024/01/27 01:45:30;;;;;;;7.60;2.22;;;4.60;99.90;;;;;;2103061;28;20104;-83
2024/01/27 01:46:30;;;;;;;8.98;2.53;;;4.70;99.90;;;;;;2095528;28;20031;-86
2024/01/27 01:47:31;;;;;;;8.05;2.47;;;4.70;99.90;;;;;;2102396;28;20053;-84
2024/01/27 01:48:32;;;;;;;13.88;2.50;;;4.70;99.90;;;;;;2095038;28;20024;-84
2024/01/27 01:49:32;;;;;;;8.27;2.08;;;4.70;99.90;;;;;;2097436;28;20028;-81
2024/01/27 01:50:33;;;;;;;8.95;2.55;;;4.70;99.90;;;;;;2100077;28;20021;-85
2024/01/27 01:51:34;;;;;;;7.88;2.08;;;4.70;99.90;;;;;;2104544;28;20027;-85
2024/01/27 01:52:35;;;;;;;9.73;2.33;;;4.60;99.90;;;;;;2096384;28;20021;-82
2024/01/27 01:53:35;;;;;;;8.15;2.67;;;4.60;99.90;;;;;;2095016;28;20478;-81
2024/01/27 01:54:37;;;;;;;13.55;2.53;;;4.60;99.90;;;;;;2096741;28;20025;-82
2024/01/27 01:55:37;;;;;;;15.13;2.47;;;4.60;99.90;;;;;;2093974;28;20024;-84
2024/01/27 01:56:38;;;;;;;14.13;2.55;;;4.60;99.90;;;;;;2093825;28;20447;-86
2024/01/27 01:57:38;;;;;;;9.13;2.25;;;4.60;99.90;;;;;;2094554;28;20028;-87
2024/01/27 01:58:39;;;;;;;8.30;2.10;;;4.60;99.90;;;;;;2101746;28;20031;-81
2024/01/27 01:59:40;;;;;;;10.68;2.70;;;4.60;99.90;;;;;;2100496;28;20067;-85
2024/01/27 02:00:41;;;;;;;10.10;2.22;;;4.60;99.90;;;;;;2105983;28;20030;-84
2024/01/27 02:01:42;;;;;;;14.43;2.60;;;4.60;99.90;;;;;;2106000;28;20127;-84
2024/01/27 02:02:45;;;;;;;10.85;2.17;;;4.50;99.90;;;;;;2101564;28;20016;-86
2024/01/27 02:03:56;;;;;;;13.30;2.60;;;4.50;99.90;;;;;;2102885;28;20024;-85
2024/01/27 02:04:56;;;;;;;10.10;2.40;;;4.50;99.90;;;;;;2096329;28;20048;-86
2024/01/27 02:05:57;;;;;;;10.30;2.55;;;4.50;99.90;;;;;;2096631;28;20017;-81
2024/01/27 02:06:57;;;;;;;11.18;2.55;;;4.50;99.90;;;;;;2096248;28;20437;-83
2024/01/27 02:08:00;;;;;;;11.15;2.30;;;4.50;99.90;;;;;;2096248;28;20496;-82
2024/01/27 02:09:00;;;;;;;8.63;2.03;;;4.60;99.90;;;;;;2103689;28;20112;-83
2024/01/27 02:10:02;;;;;;;12.13;2.45;;;4.50;99.90;;;;;;2108112;28;20023;-84
2024/01/27 02:11:02;;;;;;;11.85;2.30;;;4.50;99.90;;;;;;2095807;28;20028;-82
2024/01/27 02:12:04;;;;;;;10.73;2.22;;;4.50;99.90;;;;;;2099473;28;20039;-86
2024/01/27 02:13:19;;;;;;;11.73;2.22;;;4.50;99.90;;;;;;2106066;28;20032;-84
2024/01/27 02:14:21;;;;;;;9.32;2.38;;;4.50;99.90;;;;;;2103147;28;20061;-84
2024/01/27 02:15:21;;;;;;;10.88;2.30;;;4.50;99.90;;;;;;2094853;28;20020;-85
2024/01/27 02:16:22;;;;;;;13.23;2.30;;;4.50;99.90;;;;;;2102454;28;20474;-81
2024/01/27 02:17:22;;;;;;;15.55;2.90;;;4.50;99.90;;;;;;2112100;28;20122;-82
2024/01/27 02:18:23;;;;;;;10.15;2.40;;;4.50;99.90;;;;;;2105995;28;20021;-83
2024/01/27 02:19:24;;;;;;;8.95;2.17;;;4.60;99.90;;;;;;2111202;28;20103;-82
2024/01/27 02:20:24;;;;;;;7.88;2.17;;;4.60;99.90;;;;;;2103482;28;20039;-83
2024/01/27 02:21:25;;;;;;;13.60;2.72;;;4.60;99.90;;;;;;2103916;28;20171;-82
2024/01/27 02:22:25;;;;;;;10.27;2.40;;;4.60;99.90;;;;;;2109400;28;20027;-86
2024/01/27 02:23:26;;;;;;;11.15;2.45;;;4.60;99.90;;;;;;2109736;28;20082;-82
2024/01/27 02:24:28;;;;;;;16.70;2.50;;;4.60;99.90;;;;;;2112710;28;20627;-84
2024/01/27 02:25:28;;;;;;;14.20;2.83;;;4.60;99.90;;;;;;2111391;28;20016;-83
2024/01/27 02:26:29;;;;;;;13.93;2.72;;;4.60;99.90;;;;;;2099012;28;20417;-81
2024/01/27 02:27:29;;;;;;;11.68;2.85;;;4.50;99.90;;;;;;2107821;28;20401;-83
2024/01/27 02:28:33;;;;;;;13.85;2.53;;;4.50;99.90;;;;;;2104432;28;20051;-86
2024/01/27 02:29:33;;;;;;;16.88;2.55;;;4.50;99.90;;;;;;2100694;28;20067;-83
2024/01/27 02:30:34;;;;;;;14.50;2.30;;;4.50;99.90;;;;;;2114210;28;20035;-85
2024/01/27 02:31:34;;;;;;;14.98;2.40;;;4.50;99.90;;;;;;2104528;28;20035;-85
2024/01/27 02:32:35;;;;;;;11.40;2.28;;;4.50;99.90;;;;;;2105074;28;20039;-82
2024/01/27 02:33:35;;;;;;;11.63;2.75;;;4.50;99.90;;;;;;2103230;28;20059;-86
2024/01/27 02:34:36;;;;;;;13.60;2.72;;;4.50;99.90;;;;;;2103819;28;20101;-87
2024/01/27 02:35:36;;;;;;;15.77;2.60;;;4.50;99.90;;;;;;2102638;28;20013;-82
2024/01/27 02:36:37;;;;;;;15.43;3.20;;;4.50;99.90;;;;;;2104289;28;20024;-87
2024/01/27 02:37:37;;;;;;;10.02;2.30;;;4.50;99.90;;;;;;2103389;28;20047;-86
2024/01/27 02:38:39;;;;;;;13.00;2.50;;;4.40;99.90;;;;;;2104364;28;20020;-83
2024/01/27 02:39:40;;;;;;;13.05;2.75;;;4.40;99.90;;;;;;2097218;28;20052;-85
2024/01/27 02:40:40;;;;;;;13.73;2.70;;;4.40;99.90;;;;;;2105150;28;20027;-85
2024/01/27 02:41:41;;;;;;;7.65;2.20;;;4.40;99.90;;;;;;2104815;28;20028;-87
2024/01/27 02:42:42;;;;;;;13.85;2.60;;;4.40;99.90;;;;;;2101083;28;20082;-85
2024/01/27 02:43:42;;;;;;;11.18;2.40;;;4.30;99.90;;;;;;2103365;28;20032;-81
2024/01/27 02:44:43;;;;;;;13.20;2.65;;;4.30;99.90;;;;;;2109886;28;20019;-83
2024/01/27 02:45:43;;;;;;;15.00;2.53;;;4.30;99.90;;;;;;2100699;28;20115;-82
2024/01/27 02:46:44;;;;;;;11.68;2.42;;;4.30;99.90;;;;;;2107429;28;20032;-83
2024/01/27 02:47:45;;;;;;;10.65;2.28;;;4.30;99.90;;;;;;2109108;28;20046;-83
2024/01/27 02:48:45;;;;;;;11.02;2.40;;;4.30;99.90;;;;;;2100604;28;20066;-82
2024/01/27 02:49:46;;;;;;;12.82;2.47;;;4.30;99.90;;;;;;2112354;28;20068;-85
2024/01/27 02:50:46;;;;;;;12.07;2.70;;;4.20;99.90;;;;;;2099476;28;20386;-85
2024/01/27 02:51:47;;;;;;;15.70;2.58;;;4.20;99.90;;;;;;2098540;28;20035;-84
2024/01/27 02:52:48;;;;;;;16.40;3.00;;;4.20;99.90;;;;;;2099240;28;20032;-83
2024/01/27 02:53:48;;;;;;;13.82;2.55;;;4.30;99.90;;;;;;2107567;28;20104;-84
2024/01/27 02:54:50;;;;;;;11.23;2.40;;;4.20;99.90;;;;;;2107697;28;20040;-82
2024/01/27 02:55:51;;;;;;;13.20;2.60;;;4.20;99.90;;;;;;2104318;28;20064;-84
2024/01/27 02:56:52;;;;;;;15.55;2.63;;;4.20;99.90;;;;;;2104680;28;20478;-84
2024/01/27 02:57:52;;;;;;;10.70;2.40;;;4.20;99.90;;;;;;2109052;28;20061;-85
2024/01/27 02:58:53;;;;;;;10.05;2.42;;;4.20;99.90;;;;;;2101564;28;20035;-83
2024/01/27 02:59:53;;;;;;;13.02;2.42;;;4.20;99.90;;;;;;2106140;28;20033;-86
2024/01/27 03:00:54;;;;;;;11.00;2.35;;;4.20;99.90;;;;;;2107938;28;20107;-81
2024/01/27 03:01:54;;;;;;;11.82;2.55;;;4.20;99.90;;;;;;2107207;28;20051;-86
2024/01/27 03:02:58;;;;;;;13.48;2.72;;;4.10;99.90;;;;;;2111294;28;20463;-84
2024/01/27 03:03:58;;;;;;;12.90;2.53;;;4.10;99.90;;;;;;2106922;28;20178;-83
2024/01/27 03:04:59;;;;;;;16.02;2.95;;;4.10;99.90;;;;;;2102381;28;20036;-85
2024/01/27 03:06:00;;;;;;;17.30;3.10;;;4.20;99.90;;;;;;2111205;28;20035;-82
2024/01/27 03:07:01;;;;;;;12.50;2.50;;;4.20;99.90;;;;;;2111684;28;20023;-84
2024/01/27 03:08:01;;;;;;;11.45;2.47;;;4.20;99.90;;;;;;2103886;28;20091;-83
2024/01/27 03:09:02;;;;;;;14.80;2.88;;;4.20;99.90;;;;;;2118057;28;20043;-83
2024/01/27 03:10:02;;;;;;;13.75;2.92;;;4.20;99.90;;;;;;2109855;28;20383;-83
2024/01/27 03:11:04;;;;;;;13.60;2.65;;;4.20;99.90;;;;;;2105061;28;20034;-84
2024/01/27 03:12:05;;;;;;;15.10;2.80;;;4.20;99.90;;;;;;2100442;28;20462;-85
2024/01/27 03:13:06;;;;;;;11.32;2.75;;;4.20;99.90;;;;;;2109542;28;20028;-85
2024/01/27 03:14:07;;;;;;;19.08;2.90;;;4.20;99.90;;;;;;2105282;28;20039;-87
2024/01/27 03:15:08;;;;;;;15.40;2.88;;;4.20;99.90;;;;;;2101978;28;20039;-84
2024/01/27 03:16:09;;;;;;;13.10;3.13;;;4.20;99.90;;;;;;2099821;28;20366;-86
2024/01/27 03:17:09;;;;;;;16.23;3.00;;;4.20;99.90;;;;;;2098487;28;20036;-86
2024/01/27 03:18:10;;;;;;;18.05;2.97;;;4.20;99.90;;;;;;2102504;28;20064;-84
2024/01/27 03:19:10;;;;;;;16.08;2.80;;;4.20;99.90;;;;;;2106037;28;20041;-85
2024/01/27 03:20:11;;;;;;;14.65;2.88;;;4.20;99.90;;;;;;2108704;28;20442;-83
2024/01/27 03:21:11;;;;;;;14.60;2.83;;;4.20;99.90;;;;;;2109041;28;20039;-85
2024/01/27 03:22:12;;;;;;;17.95;3.20;;;4.20;99.90;;;;;;2105697;28;20032;-84
2024/01/27 03:23:12;;;;;;;10.70;2.63;;;4.30;99.90;;;;;;2102170;28;20512;-81
2024/01/27 03:24:13;;;;;;;11.43;2.78;;;4.30;99.90;;;;;;2107242;28;20028;-82
2024/01/27 03:25:14;;;;;;;12.38;2.67;;;4.30;99.90;;;;;;2101769;28;20567;-86
2024/01/27 03:26:14;;;;;;;15.55;2.70;;;4.30;99.90;;;;;;2100900;28;20024;-86
2024/01/27 03:27:15;;;;;;;13.85;3.03;;;4.30;99.90;;;;;;2099425;28;20016;-84
2024/01/27 03:28:16;;;;;;;14.25;2.83;;;4.30;99.90;;;;;;2102446;28;20036;-85
2024/01/27 03:29:16;;;;;;;13.75;2.85;;;4.30;99.90;;;;;;2106270;28;20040;-83
2024/01/27 03:30:17;;;;;;;11.00;3.00;;;4.40;99.90;;;;;;2105680;28;20043;-82
2024/01/27 03:31:17;;;;;;;18.13;2.85;;;4.40;99.90;;;;;;2103677;28;20070;-86
2024/01/27 03:32:18;;;;;;;13.80;2.70;;;4.40;99.90;;;;;;2111986;28;20051;-86
2024/01/27 03:33:18;;;;;;;13.43;2.70;;;4.30;99.90;;;;;;2107693;28;20405;-84
2024/01/27 03:34:24;;;;;;;14.50;3.00;;;4.40;99.90;;;;;;2100681;28;20028;-87
2024/01/27 03:35:25;;;;;;;13.05;3.00;;;4.40;99.90;;;;;;2101022;28;20028;-83
2024/01/27 03:36:25;;;;;;;14.88;2.90;;;4.30;99.90;;;;;;2107717;28;20036;-82
2024/01/27 03:37:26;;;;;;;11.05;2.75;;;4.30;99.90;;;;;;2106564;28;20068;-83
2024/01/27 03:38:27;;;;;;;17.48;2.70;;;4.30;99.90;;;;;;2097886;28;20042;-79
2024/01/27 03:39:27;;;;;;;19.25;3.00;;;4.30;99.90;;;;;;2102132;28;20027;-83
2024/01/27 03:40:28;;;;;;;15.27;3.00;;;4.30;99.90;;;;;;2100515;28;20047;-84
2024/01/27 03:41:29;;;;;;;14.48;3.03;;;4.30;99.90;;;;;;2098925;28;20050;-83
2024/01/27 03:42:29;;;;;;;13.98;2.50;;;4.20;99.90;;;;;;2096932;28;20075;-86
2024/01/27 03:43:31;;;;;;;13.18;2.67;;;4.20;99.90;;;;;;2096462;28;20059;-85
2024/01/27 03:44:31;;;;;;;14.07;2.75;;;4.20;99.90;;;;;;2096458;28;20036;-84
2024/01/27 03:45:32;;;;;;;15.77;2.67;;;4.20;99.90;;;;;;2107854;28;20034;-85
2024/01/27 03:46:32;;;;;;;15.00;2.55;;;4.20;99.90;;;;;;2104087;28;20031;-83
2024/01/27 03:47:33;;;;;;;18.88;3.10;;;4.20;99.90;;;;;;2102661;28;20042;-86
2024/01/27 03:48:35;;;;;;;13.85;2.92;;;4.20;99.90;;;;;;2098814;28;20039;-85
2024/01/27 03:49:35;;;;;;;15.13;2.70;;;4.20;99.90;;;;;;2107354;28;20038;-82
2024/01/27 03:50:36;;;;;;;15.93;3.15;;;4.20;99.90;;;;;;2107036;28;20081;-83
2024/01/27 03:51:36;;;;;;;13.07;2.70;;;4.20;99.90;;;;;;2099400;28;20058;-83
2024/01/27 03:52:37;;;;;;;14.73;2.88;;;4.20;99.90;;;;;;2105545;28;20024;-85
2024/01/27 03:53:37;;;;;;;14.65;3.20;;;4.20;99.90;;;;;;2102658;28;20015;-84
2024/01/27 03:54:39;;;;;;;15.80;2.90;;;4.20;99.90;;;;;;2100493;28;20020;-87
2024/01/27 03:55:39;;;;;;;17.30;3.17;;;4.20;99.90;;;;;;2100701;28;20095;-87
2024/01/27 03:56:41;;;;;;;15.25;2.92;;;4.20;99.90;;;;;;2094382;28;20032;-87
2024/01/27 03:57:41;;;;;;;14.43;2.90;;;4.20;99.90;;;;;;2097178;28;20044;-85
2024/01/27 03:58:42;;;;;;;11.73;2.80;;;4.10;99.90;;;;;;2100658;28;20048;-88
2024/01/27 03:59:43;;;;;;;14.93;2.90;;;4.10;99.90;;;;;;2101110;28;20089;-88
2024/01/27 04:00:43;;;;;;;16.92;3.35;;;4.10;99.90;;;;;;2100253;28;20039;-83
2024/01/27 04:01:44;;;;;;;11.35;2.70;;;4.20;99.90;;;;;;2105306;28;20043;-83
2024/01/27 04:02:45;;;;;;;15.90;3.00;;;4.20;99.90;;;;;;2102872;28;20016;-81
2024/01/27 04:03:45;;;;;;;14.93;3.15;;;4.20;99.90;;;;;;2103173;28;20024;-86
2024/01/27 04:04:46;;;;;;;14.30;2.60;;;4.20;99.90;;;;;;2107643;28;20094;-82
2024/01/27 04:05:46;;;;;;;15.57;2.70;;;4.20;99.90;;;;;;2102025;28;20041;-82
2024/01/27 04:06:47;;;;;;;13.45;2.95;;;4.20;99.90;;;;;;2102349;28;20031;-84
2024/01/27 04:07:50;;;;;;;18.27;2.95;;;4.20;99.90;;;;;;2101455;28;20050;-84
2024/01/27 04:08:51;;;;;;;17.80;2.80;;;4.20;99.90;;;;;;2101715;28;20104;-83
2024/01/27 04:09:51;;;;;;;13.65;3.40;;;4.20;99.90;;;;;;2098975;28;20086;-81
2024/01/27 04:10:52;;;;;;;12.27;2.88;;;4.20;99.90;;;;;;2102834;28;20038;-82
2024/01/27 04:11:53;;;;;;;17.60;3.03;;;4.30;99.90;;;;;;2094429;28;20032;-83
2024/01/27 04:12:53;;;;;;;15.50;3.03;;;4.30;99.90;;;;;;2101421;28;20043;-82
2024/01/27 04:13:54;;;;;;;20.65;3.10;;;4.30;99.90;;;;;;2096668;28;20035;-87
2024/01/27 04:14:54;;;;;;;16.92;3.10;;;4.30;99.90;;;;;;2101560;28;20020;-83
2024/01/27 04:15:57;;;;;;;13.60;3.13;;;4.30;99.90;;;;;;2100333;28;20051;-82
2024/01/27 04:16:57;;;;;;;16.83;3.05;;;4.30;99.90;;;;;;2097439;28;20050;-84
2024/01/27 04:17:58;;;;;;;13.18;2.75;;;4.30;99.90;;;;;;2105538;28;20426;-85
2024/01/27 04:18:58;;;;;;;13.70;3.10;;;4.30;99.90;;;;;;2096548;28;20030;-85
2024/01/27 04:19:59;;;;;;;17.27;3.17;;;4.30;99.90;;;;;;2096675;28;20024;-87
2024/01/27 04:21:00;;;;;;;12.65;2.53;;;4.30;99.90;;;;;;2107345;28;20021;-86
2024/01/27 04:22:01;;;;;;;18.10;3.65;;;4.30;99.90;;;;;;2101043;28;20036;-86
2024/01/27 04:23:02;;;;;;;18.45;3.10;;;4.30;99.90;;;;;;2101014;28;20596;-85
2024/01/27 04:24:03;;;;;;;17.38;2.83;;;4.30;99.90;;;;;;2097260;28;20024;-87
2024/01/27 04:25:04;;;;;;;15.90;3.10;;;4.30;99.90;;;;;;2104094;28;20036;-84
2024/01/27 04:26:06;;;;;;;17.83;3.38;;;4.30;99.90;;;;;;2104245;28;20107;-84
2024/01/27 04:27:07;;;;;;;15.00;2.83;;;4.40;99.90;;;;;;2096245;28;20052;-88
2024/01/27 04:28:09;;;;;;;17.55;2.78;;;4.30;99.90;;;;;;2096006;28;20114;-81
2024/01/27 04:29:14;;;;;;;14.35;2.83;;;4.40;99.90;;;;;;2096975;28;20494;-85
2024/01/27 04:30:15;;;;;;;13.07;3.03;;;4.30;99.90;;;;;;2106642;28;20026;-83
2024/01/27 04:31:15;;;;;;;15.80;3.08;;;4.30;99.90;;;;;;2108415;28;20027;-85
2024/01/27 04:32:16;;;;;;;16.70;2.90;;;4.30;99.90;;;;;;2108560;28;20315;-85
2024/01/27 04:33:16;;;;;;;14.02;3.03;;;4.30;99.90;;;;;;2099986;28;20050;-84
2024/01/27 04:34:17;;;;;;;18.35;2.80;;;4.30;99.90;;;;;;2111447;28;20066;-80
2024/01/27 04:35:18;;;;;;;17.55;3.20;;;4.30;99.90;;;;;;2102315;28;20027;-84
2024/01/27 04:36:29;;;;;;;15.43;2.80;;;4.30;99.90;;;;;;2097318;28;20028;-84
2024/01/27 04:37:29;;;;;;;16.27;2.85;;;4.30;99.90;;;;;;2102984;28;20103;-84
2024/01/27 04:38:30;;;;;;;14.10;2.90;;;4.30;99.90;;;;;;2096624;28;20028;-88
2024/01/27 04:39:30;;;;;;;17.08;3.00;;;4.30;99.90;;;;;;2102353;28;20028;-86
2024/01/27 04:40:31;;;;;;;14.38;2.70;;;4.20;99.90;;;;;;2096592;28;20024;-87
2024/01/27 04:41:31;;;;;;;19.63;3.30;;;4.20;99.90;;;;;;2104645;28;20126;-87
2024/01/27 04:42:35;;;;;;;15.45;2.97;;;4.20;99.90;;;;;;2106042;28;20035;-87
2024/01/27 04:43:35;;;;;;;15.30;3.15;;;4.20;99.90;;;;;;2097915;28;20033;-86
2024/01/27 04:44:40;;;;;;;18.02;3.17;;;4.20;99.90;;;;;;2104702;28;20024;-84
2024/01/27 04:45:40;;;;;;;17.63;3.00;;;4.10;99.90;;;;;;2114101;28;20541;-83
2024/01/27 04:46:41;;;;;;;14.93;3.40;;;4.10;99.90;;;;;;2104418;28;20032;-87
2024/01/27 04:47:44;;;;;;;16.73;2.70;;;4.10;99.90;;;;;;2096475;28;20021;-80
2024/01/27 04:48:45;;;;;;;19.20;3.20;;;4.10;99.90;;;;;;2098633;28;20546;-84
2024/01/27 04:49:45;;;;;;;13.35;2.75;;;4.10;99.90;;;;;;2108987;28;20031;-85
2024/01/27 04:50:46;;;;;;;19.63;3.33;;;4.10;99.90;;;;;;2108026;28;20016;-84
2024/01/27 04:51:47;;;;;;;17.52;3.40;;;4.10;99.90;;;;;;2097878;28;20029;-83
2024/01/27 04:52:47;;;;;;;16.40;2.63;;;4.00;99.90;;;;;;2104082;28;20449;-86
2024/01/27 04:53:48;;;;;;;15.50;2.92;;;4.00;99.90;;;;;;2101290;28;20048;-82
2024/01/27 04:54:48;;;;;;;17.63;2.90;;;4.00;99.90;;;;;;2097752;28;20032;-84
2024/01/27 04:55:49;;;;;;;12.15;2.65;;;4.00;99.90;;;;;;2105333;28;20032;-81
2024/01/27 04:56:49;;;;;;;18.83;3.08;;;4.00;99.90;;;;;;2098980;28;20388;-84
2024/01/27 04:57:50;;;;;;;16.33;3.03;;;3.90;99.90;;;;;;2104808;28;20502;-83
2024/01/27 04:58:50;;;;;;;15.63;2.78;;;3.90;99.90;;;;;;2106766;28;20035;-84
2024/01/27 04:59:51;;;;;;;12.77;3.00;;;3.90;99.90;;;;;;2106309;28;20031;-85
2024/01/27 05:00:51;;;;;;;17.30;3.20;;;3.90;99.90;;;;;;2104841;28;20042;-87
2024/01/27 05:01:52;;;;;;;12.95;2.85;;;3.90;99.90;;;;;;2100708;28;20028;-84
2024/01/27 05:02:53;;;;;;;16.40;2.97;;;3.80;99.90;;;;;;2096831;28;20050;-86
2024/01/27 05:03:53;;;;;;;14.88;2.80;;;3.80;99.90;;;;;;2103800;28;20059;-83
2024/01/27 05:04:54;;;;;;;22.38;2.70;;;3.90;99.90;;;;;;2097229;28;20527;-84
2024/01/27 05:05:54;;;;;;;19.90;3.25;;;3.80;99.90;;;;;;2103740;28;20029;-85
2024/01/27 05:06:55;;;;;;;13.30;2.60;;;3.80;99.90;;;;;;2103098;28;20066;-82
2024/01/27 05:07:55;;;;;;;16.38;2.92;;;3.90;99.90;;;;;;2097260;28;20029;-87
2024/01/27 05:08:56;;;;;;;14.55;2.90;;;3.80;99.90;;;;;;2101472;28;20699;-84
2024/01/27 05:09:56;;;;;;;18.35;3.00;;;3.90;99.90;;;;;;2108350;28;20032;-88
2024/01/27 05:10:57;;;;;;;16.08;3.10;;;3.90;99.90;;;;;;2105373;28;20035;-84
2024/01/27 05:11:59;;;;;;;18.60;3.10;;;3.90;99.90;;;;;;2105343;28;20031;-85
2024/01/27 05:13:00;;;;;;;17.95;3.22;;;3.90;99.90;;;;;;2099003;28;20034;-85
2024/01/27 05:14:01;;;;;;;17.80;3.40;;;3.90;99.90;;;;;;2099698;28;20051;-85
2024/01/27 05:15:01;;;;;;;17.15;2.80;;;4.00;99.90;;;;;;2102188;28;20097;-84
2024/01/27 05:16:02;;;;;;;15.55;3.00;;;4.00;99.90;;;;;;2102474;28;20399;-89
2024/01/27 05:17:02;;;;;;;14.20;2.85;;;4.00;99.90;;;;;;2101951;28;20467;-83